Time;durP1;ratioP1;P1;durP2;ratioP2;P2;SDS_P1;SDS_P2;PMS_P1;PMS_P2;Temp;Humidity;BMP_temperature;BMP_pressure;BME280_temperature;BME280_humidity;BME280_pressure;Samples;Min_cycle;Max_cycle;Signal;HPM_P1;HPM_P2
2022/07/08 00:00:06;;;;;;;1.90;1.30;;;21.30;45.80;;;;;;20607;6788;311439;-89
2022/07/08 00:02:31;;;;;;;1.23;1.10;;;21.40;45.80;;;;;;20527;6843;338070;-88
2022/07/08 00:04:57;;;;;;;1.27;1.08;;;21.60;45.60;;;;;;20516;6844;308829;-88
2022/07/08 00:07:22;;;;;;;1.27;1.27;;;21.70;45.10;;;;;;20536;6841;279459;-89
2022/07/08 00:09:49;;;;;;;1.83;1.20;;;21.90;45.00;;;;;;20551;6841;307723;-88
2022/07/08 00:12:15;;;;;;;1.10;1.10;;;21.90;44.70;;;;;;20532;6842;289400;-88
2022/07/08 00:14:42;;;;;;;1.60;1.50;;;22.00;44.80;;;;;;20539;6848;308605;-88
2022/07/08 00:17:08;;;;;;;1.33;1.20;;;22.00;44.70;;;;;;20616;6818;337460;-88
2022/07/08 00:19:33;;;;;;;2.40;1.40;;;22.00;44.40;;;;;;20550;6839;282826;-88
2022/07/08 00:21:59;;;;;;;1.87;1.57;;;22.00;44.40;;;;;;20552;6839;308999;-88
2022/07/08 00:24:26;;;;;;;2.10;1.90;;;22.00;43.90;;;;;;20534;6840;306961;-89
2022/07/08 00:26:51;;;;;;;3.65;2.30;;;21.90;43.80;;;;;;20593;6840;306708;-88
2022/07/08 00:29:17;;;;;;;3.10;2.20;;;21.90;43.30;;;;;;20573;6840;308512;-89
2022/07/08 00:31:43;;;;;;;2.70;2.40;;;21.80;43.10;;;;;;20730;6846;117645;-88
2022/07/08 00:34:08;;;;;;;3.07;2.20;;;21.50;43.50;;;;;;20515;6846;278535;-90
2022/07/08 00:36:35;;;;;;;5.15;2.35;;;21.40;42.90;;;;;;20506;6855;308532;-94
2022/07/08 00:39:02;;;;;;;2.13;1.93;;;21.40;42.90;;;;;;20748;6840;117256;-90
2022/07/08 00:41:27;;;;;;;3.40;2.30;;;21.10;43.30;;;;;;20523;6840;308631;-89
2022/07/08 00:43:53;;;;;;;5.60;2.00;;;21.10;43.50;;;;;;20550;6837;336561;-89
2022/07/08 00:46:19;;;;;;;4.00;2.10;;;20.90;43.50;;;;;;20704;6840;118591;-90
2022/07/08 00:48:48;;;;;;;5.25;2.40;;;20.90;42.60;;;;;;20513;6843;340878;-89
2022/07/08 00:51:13;;;;;;;5.00;2.30;;;20.90;42.00;;;;;;20526;6847;308041;-91
2022/07/08 00:53:39;;;;;;;4.00;2.30;;;20.90;42.00;;;;;;20554;6836;307745;-89
2022/07/08 00:56:04;;;;;;;4.37;2.30;;;20.90;41.50;;;;;;20476;6852;308216;-88
2022/07/08 00:58:30;;;;;;;3.03;2.27;;;20.90;41.50;;;;;;20757;6831;119092;-89
2022/07/08 01:00:56;;;;;;;2.97;2.30;;;20.10;42.90;;;;;;20778;6831;117227;-88
2022/07/08 01:03:22;;;;;;;6.35;2.60;;;20.10;42.80;;;;;;20563;6834;313248;-91
2022/07/08 01:05:48;;;;;;;5.13;2.57;;;19.80;43.30;;;;;;20775;6832;118510;-89
2022/07/08 01:08:14;;;;;;;5.73;2.50;;;19.80;43.30;;;;;;20770;6833;117667;-88
2022/07/08 01:10:39;;;;;;;5.47;2.30;;;19.50;43.90;;;;;;20767;6833;119511;-90
2022/07/08 01:13:05;;;;;;;5.23;2.60;;;19.20;44.40;;;;;;20571;6833;278516;-88
2022/07/08 01:15:33;;;;;;;3.63;2.43;;;19.70;43.60;;;;;;20579;6833;306849;-88
2022/07/08 01:17:58;;;;;;;6.10;2.57;;;19.60;43.50;;;;;;20754;6834;117436;-88
2022/07/08 01:20:24;;;;;;;4.53;2.50;;;19.50;43.70;;;;;;20559;6834;337216;-88
2022/07/08 01:22:49;;;;;;;3.07;2.40;;;19.50;43.10;;;;;;20572;6834;279744;-88
2022/07/08 01:25:16;;;;;;;5.07;2.60;;;19.90;42.00;;;;;;20563;6834;309340;-91
2022/07/08 01:27:42;;;;;;;6.03;3.10;;;19.80;41.90;;;;;;20790;6834;117819;-91
2022/07/08 01:30:08;;;;;;;4.33;2.60;;;19.60;42.40;;;;;;20809;6834;140589;-88
2022/07/08 01:32:34;;;;;;;4.40;3.03;;;19.20;42.90;;;;;;20848;6834;67289;-87
2022/07/08 01:35:01;;;;;;;5.75;3.47;;;18.90;43.40;;;;;;20536;6834;337104;-88
2022/07/08 01:37:26;;;;;;;5.37;3.23;;;19.00;42.90;;;;;;20572;6834;278942;-88
2022/07/08 01:39:53;;;;;;;3.55;3.10;;;19.30;41.90;;;;;;20609;6834;307404;-85
2022/07/08 01:42:19;;;;;;;3.97;3.13;;;19.50;41.70;;;;;;20772;6834;117282;-88
2022/07/08 01:44:45;;;;;;;3.75;3.15;;;19.30;42.30;;;;;;20573;6834;335762;-88
2022/07/08 01:47:10;;;;;;;5.13;2.97;;;19.30;41.90;;;;;;20784;6834;117318;-88
2022/07/08 01:49:36;;;;;;;6.83;3.50;;;19.10;42.30;;;;;;20773;6834;117725;-88
2022/07/08 01:52:03;;;;;;;5.83;3.13;;;18.80;42.70;;;;;;20773;6834;117359;-88
2022/07/08 01:54:28;;;;;;;5.63;3.30;;;18.60;43.20;;;;;;20563;6834;313196;-88
2022/07/08 01:57:13;;;;;;;3.78;3.20;;;18.70;42.50;;;;;;20571;6834;278082;-88
2022/07/08 01:59:21;;;;;;;3.80;3.40;;;19.00;41.80;;;;;;20519;6834;309363;-87
2022/07/08 02:01:47;;;;;;;4.30;3.20;;;19.30;41.30;;;;;;20602;6834;278134;-88
2022/07/08 02:04:12;;;;;;;4.07;3.55;;;19.40;40.90;;;;;;20776;6834;120058;-88
2022/07/08 02:06:38;;;;;;;4.97;3.00;;;19.20;41.40;;;;;;20782;6834;119898;-88
2022/07/08 02:09:05;;;;;;;3.73;3.20;;;18.80;41.90;;;;;;20570;6834;278060;-88
2022/07/08 02:14:17;;;;;;;5.80;3.10;;;19.00;41.40;;;;;;20763;6834;117319;-88
2022/07/08 02:16:42;;;;;;;5.43;3.10;;;18.80;41.80;;;;;;20571;6832;278601;-88
2022/07/08 02:19:08;;;;;;;5.62;3.10;;;18.70;41.80;;;;;;20563;6833;305531;-88
2022/07/08 02:21:34;;;;;;;3.27;2.70;;;18.70;42.50;;;;;;20786;6833;118215;-89
2022/07/08 02:24:00;;;;;;;5.12;3.03;;;18.70;42.40;;;;;;20555;6833;291157;-89
2022/07/08 02:26:25;;;;;;;5.97;3.28;;;18.70;41.90;;;;;;20576;6833;335312;-89
2022/07/08 02:28:51;;;;;;;5.10;3.10;;;18.80;41.50;;;;;;20567;6834;307086;-88
2022/07/08 02:31:17;;;;;;;4.03;2.70;;;19.00;41.60;;;;;;20576;6834;307122;-89
2022/07/08 02:33:43;;;;;;;4.70;2.47;;;19.00;41.50;;;;;;20774;6834;118299;-88
2022/07/08 02:36:08;;;;;;;5.20;2.80;;;18.80;42.00;;;;;;20765;6834;117724;-89
2022/07/08 02:38:34;;;;;;;6.70;2.70;;;18.40;42.60;;;;;;20794;6834;120668;-89
2022/07/08 02:41:00;;;;;;;4.10;2.50;;;18.10;43.20;;;;;;20785;6834;117277;-88
2022/07/08 02:43:25;;;;;;;5.50;3.17;;;17.90;43.90;;;;;;20571;6834;304863;-89
2022/07/08 02:45:50;;;;;;;3.30;2.37;;;18.20;43.30;;;;;;20777;6834;117584;-89
2022/07/08 02:48:17;;;;;;;7.10;3.00;;;18.10;43.80;;;;;;20759;6834;119911;-88
2022/07/08 02:50:42;;;;;;;4.27;2.43;;;18.10;43.70;;;;;;20781;6834;117232;-89
2022/07/08 02:53:08;;;;;;;5.53;2.65;;;18.00;44.70;;;;;;20567;6834;307882;-89
2022/07/08 02:55:33;;;;;;;4.23;2.67;;;18.20;43.20;;;;;;20786;6834;117174;-89
2022/07/08 02:57:59;;;;;;;5.57;2.70;;;18.20;43.20;;;;;;20544;6834;307988;-89
2022/07/08 03:00:25;;;;;;;3.73;2.80;;;18.80;43.70;;;;;;20574;6834;336800;-88
2022/07/08 03:02:51;;;;;;;4.43;2.70;;;18.80;43.00;;;;;;20566;6834;309204;-89
2022/07/08 03:05:17;;;;;;;5.40;2.57;;;19.10;42.90;;;;;;20765;6834;120194;-89
2022/07/08 03:07:42;;;;;;;7.47;3.00;;;18.90;42.80;;;;;;20580;6834;277550;-88
2022/07/08 03:10:08;;;;;;;6.50;2.90;;;19.00;42.40;;;;;;20757;6834;118455;-89
2022/07/08 03:12:33;;;;;;;5.83;2.80;;;18.80;42.60;;;;;;20569;6834;277641;-89
2022/07/08 03:15:00;;;;;;;4.97;2.50;;;18.70;42.70;;;;;;20782;6834;118335;-88
2022/07/08 03:17:25;;;;;;;6.15;2.95;;;18.70;42.70;;;;;;20566;6834;336902;-89
2022/07/08 03:19:51;;;;;;;4.50;2.65;;;18.80;42.60;;;;;;20555;6834;342389;-88
2022/07/08 03:22:16;;;;;;;5.87;2.40;;;19.00;42.40;;;;;;20558;6834;278078;-88
2022/07/08 03:24:43;;;;;;;4.80;3.03;;;19.00;42.50;;;;;;20799;6834;117263;-89
2022/07/08 03:27:08;;;;;;;4.47;2.20;;;19.00;42.50;;;;;;20787;6834;121656;-90
2022/07/08 03:29:34;;;;;;;4.13;2.40;;;18.70;43.00;;;;;;20784;6832;118223;-90
2022/07/08 03:32:00;;;;;;;6.22;2.60;;;18.40;43.40;;;;;;20773;6833;118428;-91
2022/07/08 03:34:26;;;;;;;5.23;2.70;;;18.00;44.10;;;;;;20772;6833;117366;-89
2022/07/08 03:36:51;;;;;;;5.67;2.50;;;18.00;44.80;;;;;;20789;6833;118033;-91
2022/07/08 03:39:17;;;;;;;4.62;2.35;;;17.90;44.40;;;;;;20788;6834;118628;-90
2022/07/08 03:41:42;;;;;;;3.83;2.80;;;17.80;44.60;;;;;;20788;6834;117399;-90
2022/07/08 03:44:08;;;;;;;5.37;2.93;;;17.70;44.70;;;;;;20547;6834;281996;-90
2022/07/08 03:46:34;;;;;;;4.57;2.60;;;18.00;44.40;;;;;;20785;6834;117776;-90
2022/07/08 03:48:59;;;;;;;4.20;2.50;;;18.20;44.30;;;;;;20566;6834;307097;-90
2022/07/08 03:51:25;;;;;;;4.33;2.37;;;18.40;43.90;;;;;;20788;6834;117495;-90
2022/07/08 03:53:50;;;;;;;2.93;2.20;;;18.40;43.90;;;;;;20792;6834;117580;-90
2022/07/08 03:56:16;;;;;;;5.10;2.77;;;18.30;44.20;;;;;;20543;6834;323940;-90
2022/07/08 03:58:41;;;;;;;6.80;2.75;;;18.50;43.90;;;;;;20795;6834;117725;-90
2022/07/08 04:01:07;;;;;;;5.10;2.90;;;18.50;43.90;;;;;;20578;6834;307573;-90
2022/07/08 04:03:32;;;;;;;4.47;2.43;;;18.70;43.50;;;;;;20784;6834;117178;-91
2022/07/08 04:05:58;;;;;;;5.22;3.00;;;18.60;43.50;;;;;;20580;6834;276249;-89
2022/07/08 04:08:24;;;;;;;5.90;3.20;;;19.00;42.80;;;;;;20605;6834;328943;-90
2022/07/08 04:10:50;;;;;;;4.17;2.43;;;18.90;42.70;;;;;;20792;6834;120859;-90
2022/07/08 04:13:15;;;;;;;5.85;2.90;;;18.80;42.90;;;;;;20582;6834;283380;-89
2022/07/08 04:15:42;;;;;;;3.75;2.67;;;18.80;43.20;;;;;;20797;6834;121062;-89
2022/07/08 04:18:07;;;;;;;3.83;2.50;;;18.70;43.10;;;;;;20776;6834;120163;-90
2022/07/08 04:20:34;;;;;;;5.77;2.50;;;18.50;43.60;;;;;;20577;6834;278992;-90
2022/07/08 04:22:58;;;;;;;5.43;2.83;;;18.70;43.20;;;;;;20575;6834;306705;-90
2022/07/08 04:25:24;;;;;;;4.12;2.60;;;19.00;43.10;;;;;;20578;6834;280823;-90
2022/07/08 04:27:50;;;;;;;4.63;2.70;;;19.20;42.80;;;;;;20578;6834;308014;-90
2022/07/08 04:30:15;;;;;;;5.07;2.70;;;19.40;42.50;;;;;;20559;6834;326933;-90
2022/07/08 04:32:41;;;;;;;5.47;3.00;;;19.60;42.10;;;;;;20582;6834;307047;-90
2022/07/08 04:35:07;;;;;;;4.00;2.57;;;19.70;41.80;;;;;;20577;6834;306275;-90
2022/07/08 04:37:32;;;;;;;6.23;2.80;;;19.80;42.50;;;;;;20572;6834;305150;-90
2022/07/08 04:39:58;;;;;;;5.12;2.60;;;19.90;41.80;;;;;;20561;6832;307248;-90
2022/07/08 04:42:25;;;;;;;4.70;2.03;;;20.00;41.80;;;;;;20790;6833;117284;-90
2022/07/08 04:44:50;;;;;;;5.30;2.17;;;19.70;42.10;;;;;;20774;6833;119601;-90
2022/07/08 04:47:16;;;;;;;6.53;2.50;;;19.30;42.70;;;;;;20583;6833;290119;-90
2022/07/08 04:49:41;;;;;;;5.13;2.63;;;19.40;42.90;;;;;;20571;6833;278181;-90
2022/07/08 04:52:07;;;;;;;4.87;2.63;;;19.70;42.40;;;;;;20580;6834;307167;-90
2022/07/08 04:54:32;;;;;;;5.25;2.70;;;19.90;41.90;;;;;;20582;6834;310687;-90
2022/07/08 04:56:58;;;;;;;4.53;2.40;;;20.10;41.60;;;;;;20795;6834;120127;-90
2022/07/08 04:59:24;;;;;;;5.07;2.70;;;19.90;41.60;;;;;;20585;6834;280585;-90
2022/07/08 05:01:49;;;;;;;3.37;2.47;;;19.90;41.00;;;;;;20800;6834;119916;-90
2022/07/08 05:04:15;;;;;;;5.63;2.40;;;19.60;41.40;;;;;;20793;6834;186900;-90
2022/07/08 05:06:40;;;;;;;5.12;4.05;;;19.30;42.00;;;;;;20823;6834;117368;-89
2022/07/08 05:09:06;;;;;;;6.23;2.67;;;19.10;42.50;;;;;;20819;6834;120655;-90
2022/07/08 05:11:32;;;;;;;5.40;2.70;;;18.80;43.20;;;;;;20801;6834;117192;-89
2022/07/08 05:14:01;;;;;;;5.73;2.40;;;18.80;43.20;;;;;;20777;6834;118128;-90
2022/07/08 05:16:27;;;;;;;6.13;2.90;;;18.80;43.50;;;;;;20791;6834;117271;-89
2022/07/08 05:18:56;;;;;;;5.87;2.70;;;18.80;43.60;;;;;;20575;6834;296500;-89
2022/07/08 05:21:22;;;;;;;6.33;2.53;;;19.10;42.70;;;;;;20788;6834;117232;-91
2022/07/08 05:23:47;;;;;;;4.57;2.50;;;19.30;42.70;;;;;;20793;6834;117432;-90
2022/07/08 05:26:13;;;;;;;5.43;2.80;;;19.30;43.00;;;;;;20559;6834;308843;-89
2022/07/08 05:28:38;;;;;;;5.87;2.27;;;19.60;42.20;;;;;;20805;6834;117439;-90
2022/07/08 05:31:05;;;;;;;5.77;2.50;;;19.70;42.10;;;;;;20588;6834;307132;-89
2022/07/08 05:33:31;;;;;;;4.37;2.40;;;19.90;41.30;;;;;;20763;6834;117874;-89
2022/07/08 05:35:56;;;;;;;5.03;2.37;;;20.00;41.50;;;;;;20772;6834;121068;-89
2022/07/08 05:38:22;;;;;;;3.80;2.00;;;19.90;41.80;;;;;;20784;6834;117487;-89
2022/07/08 05:40:47;;;;;;;4.87;2.53;;;19.80;42.00;;;;;;20567;6834;279040;-90
2022/07/08 05:43:13;;;;;;;6.10;2.23;;;20.00;41.10;;;;;;20801;6834;117129;-90
2022/07/08 05:45:38;;;;;;;4.60;2.70;;;20.10;41.40;;;;;;20802;6834;116730;-90
2022/07/08 05:48:24;;;;;;;;;;;;;;;;;;;;;
2022/07/08 05:50:30;;;;;;;7.40;2.50;;;20.10;41.30;;;;;;20639;6632;123136;-87
2022/07/08 05:53:08;;;;;;;4.90;2.60;;;20.30;40.80;;;;;;20566;6795;279982;-87
2022/07/08 05:55:54;;;;;;;;;;;;;;;;;;;;;
2022/07/08 05:58:20;;;;;;;3.90;1.93;;;20.10;41.00;;;;;;20763;6765;121802;-88
2022/07/08 06:01:06;;;;;;;;;;;;;;;;;;;;;
2022/07/08 06:30:55;;;;;;;3.60;2.10;;;22.40;43.10;;;;;;21365;6502;98006;-85
2022/07/08 06:33:21;;;;;;;3.63;1.60;;;22.80;41.70;;;;;;20783;6832;117689;-85
2022/07/08 06:35:47;;;;;;;3.95;1.95;;;23.30;40.20;;;;;;20799;6823;116414;-84
2022/07/08 06:38:12;;;;;;;5.47;1.83;;;23.90;38.80;;;;;;20780;6823;127204;-85
2022/07/08 06:40:38;;;;;;;2.83;1.75;;;24.10;37.00;;;;;;20539;6842;300721;-86
2022/07/08 06:43:04;;;;;;;3.72;1.80;;;24.60;34.00;;;;;;20583;6831;307574;-84
2022/07/08 06:45:31;;;;;;;3.53;1.60;;;24.60;34.00;;;;;;20796;6831;117080;-85
2022/07/08 06:47:55;;;;;;;4.20;2.20;;;25.00;34.80;;;;;;20504;6842;336396;-85
2022/07/08 06:50:21;;;;;;;3.43;1.63;;;25.60;32.40;;;;;;20767;6829;117239;-84
2022/07/08 06:52:46;;;;;;;3.73;2.03;;;25.90;32.70;;;;;;20481;6858;278631;-87
2022/07/08 06:55:13;;;;;;;3.23;2.03;;;26.30;31.00;;;;;;20800;6829;116614;-87
2022/07/08 06:57:39;;;;;;;4.10;1.80;;;26.30;32.00;;;;;;20793;6829;121978;-85
2022/07/08 07:00:07;;;;;;;2.55;1.80;;;26.30;32.40;;;;;;20529;6829;277943;-85
2022/07/08 07:02:31;;;;;;;3.33;2.00;;;26.80;31.20;;;;;;20748;6842;120122;-86
2022/07/08 07:04:58;;;;;;;3.13;1.80;;;27.20;31.60;;;;;;20538;6842;308441;-86
2022/07/08 07:07:24;;;;;;;3.43;1.77;;;27.80;29.40;;;;;;20766;6845;117570;-86
2022/07/08 07:09:49;;;;;;;2.70;1.93;;;27.90;29.60;;;;;;20654;6862;117294;-86
2022/07/08 07:12:16;;;;;;;3.47;1.90;;;27.60;29.80;;;;;;20399;6880;300477;-85
2022/07/08 07:14:42;;;;;;;4.00;1.93;;;27.70;29.50;;;;;;20466;6867;312050;-86
2022/07/08 07:17:07;;;;;;;3.00;1.73;;;27.90;29.30;;;;;;20462;6867;309852;-85
2022/07/08 07:19:33;;;;;;;2.50;1.47;;;27.90;29.00;;;;;;20433;6872;279517;-85
2022/07/08 07:21:58;;;;;;;2.53;1.80;;;27.60;28.60;;;;;;20425;6870;301173;-86
2022/07/08 07:24:24;;;;;;;2.70;1.60;;;27.30;29.10;;;;;;20430;6870;280969;-85
2022/07/08 07:26:50;;;;;;;4.00;1.73;;;27.00;29.50;;;;;;20484;6862;280024;-85
2022/07/08 07:29:15;;;;;;;3.30;1.93;;;26.90;29.20;;;;;;20488;6862;278724;-86
2022/07/08 07:31:41;;;;;;;3.93;2.00;;;26.70;28.70;;;;;;20694;6863;117725;-85
2022/07/08 07:37:37;;;;;;;2.53;1.30;;;25.70;30.10;;;;;;20685;6861;116897;-83
2022/07/08 07:40:03;;;;;;;3.60;1.70;;;25.10;31.50;;;;;;20502;6860;278632;-84
2022/07/08 07:42:29;;;;;;;3.42;1.80;;;25.10;31.10;;;;;;20453;6870;309051;-86
2022/07/08 07:44:54;;;;;;;3.13;1.70;;;25.30;31.60;;;;;;20658;6881;123464;-84
2022/07/08 07:47:20;;;;;;;2.05;1.60;;;25.30;31.60;;;;;;20502;6860;278288;-82
2022/07/08 07:49:45;;;;;;;3.28;1.73;;;25.50;31.70;;;;;;20435;6881;282133;-86
2022/07/08 07:52:11;;;;;;;2.23;1.60;;;25.90;31.10;;;;;;20467;6860;323307;-83
2022/07/08 07:54:36;;;;;;;3.43;1.87;;;26.10;31.00;;;;;;20641;6881;124282;-83
2022/07/08 07:57:02;;;;;;;3.30;1.95;;;26.20;31.10;;;;;;20501;6860;278942;-82
2022/07/08 07:59:28;;;;;;;3.85;1.73;;;26.20;30.00;;;;;;20497;6860;278929;-82
2022/07/08 08:01:54;;;;;;;2.00;1.53;;;26.00;30.70;;;;;;20628;6882;118677;-82
2022/07/08 08:04:19;;;;;;;2.17;1.60;;;26.00;30.70;;;;;;20668;6860;121752;-83
2022/07/08 08:06:45;;;;;;;3.00;1.70;;;25.70;31.20;;;;;;20489;6855;305976;-84
2022/07/08 08:09:11;;;;;;;3.40;2.12;;;25.80;31.40;;;;;;20505;6855;298224;-83
2022/07/08 08:11:37;;;;;;;1.70;1.37;;;25.80;31.40;;;;;;20708;6855;117792;-83
2022/07/08 08:14:02;;;;;;;4.28;2.00;;;25.80;31.40;;;;;;20486;6855;280916;-83
2022/07/08 08:16:28;;;;;;;2.37;1.60;;;25.70;31.10;;;;;;20507;6855;293745;-83
2022/07/08 08:18:54;;;;;;;2.58;1.77;;;25.70;31.60;;;;;;20712;6855;117520;-83
2022/07/08 08:21:19;;;;;;;2.60;1.27;;;25.40;32.00;;;;;;20702;6855;117644;-84
2022/07/08 08:23:45;;;;;;;3.35;1.90;;;25.10;32.40;;;;;;20504;6855;280747;-83
2022/07/08 08:26:10;;;;;;;2.72;1.98;;;25.30;31.90;;;;;;20490;6855;279396;-84
2022/07/08 08:28:36;;;;;;;3.28;1.98;;;25.80;31.50;;;;;;20448;6877;309963;-84
2022/07/08 08:31:01;;;;;;;3.07;1.47;;;26.30;30.90;;;;;;20691;6866;117487;-84
2022/07/08 08:33:30;;;;;;;2.78;1.62;;;26.40;30.60;;;;;;20449;6875;297930;-85
2022/07/08 08:35:55;;;;;;;2.07;1.70;;;26.40;30.40;;;;;;20660;6877;117440;-85
2022/07/08 08:38:22;;;;;;;1.98;1.58;;;25.80;31.10;;;;;;20675;6860;117357;-84
2022/07/08 08:40:47;;;;;;;2.77;1.67;;;25.80;31.10;;;;;;20706;6856;116245;-84
2022/07/08 08:43:13;;;;;;;1.87;1.40;;;25.40;31.50;;;;;;20692;6856;117687;-84
2022/07/08 08:45:38;;;;;;;3.85;1.85;;;25.20;32.20;;;;;;20507;6856;277947;-84
2022/07/08 08:48:07;;;;;;;2.53;1.83;;;25.50;32.40;;;;;;20484;6856;337965;-84
2022/07/08 08:53:19;;;;;;;1.97;1.70;;;26.50;29.90;;;;;;20718;6854;117554;-85
2022/07/08 08:55:44;;;;;;;2.40;1.33;;;26.70;30.30;;;;;;20709;6855;117997;-85
2022/07/08 08:58:09;;;;;;;2.90;1.80;;;26.60;30.40;;;;;;20493;6856;278408;-85
2022/07/08 09:00:36;;;;;;;3.55;1.83;;;26.90;29.90;;;;;;20507;6856;310415;-87
2022/07/08 09:03:01;;;;;;;3.27;2.20;;;26.80;29.80;;;;;;20501;6856;309967;-87
2022/07/08 09:05:27;;;;;;;2.77;1.50;;;26.40;30.00;;;;;;20708;6856;117166;-87
2022/07/08 09:07:53;;;;;;;3.17;1.80;;;26.30;30.00;;;;;;20527;6856;306559;-85
2022/07/08 09:10:19;;;;;;;3.45;1.70;;;25.90;31.30;;;;;;20702;6856;121365;-84
2022/07/08 09:13:05;;;;;;;2.33;1.67;;;25.80;31.20;;;;;;20751;6856;116752;-85
2022/07/08 09:15:30;;;;;;;3.50;1.80;;;25.80;31.60;;;;;;20760;6856;117553;-86
2022/07/08 09:17:56;;;;;;;2.63;1.20;;;25.80;31.70;;;;;;20715;6856;118428;-85
2022/07/08 09:20:21;;;;;;;3.60;1.50;;;26.00;31.70;;;;;;20617;6853;118213;-85
2022/07/08 09:22:47;;;;;;;2.67;1.57;;;26.20;31.30;;;;;;20544;6853;308376;-84
2022/07/08 09:25:13;;;;;;;4.07;1.90;;;26.50;30.30;;;;;;20752;6853;116273;-85
2022/07/08 09:27:38;;;;;;;3.62;1.95;;;26.60;30.00;;;;;;20737;6852;117776;-85
2022/07/08 09:30:04;;;;;;;3.47;2.30;;;26.40;30.00;;;;;;20495;6855;308091;-87
2022/07/08 09:32:30;;;;;;;2.93;1.70;;;26.50;29.70;;;;;;20485;6869;278290;-86
2022/07/08 09:34:55;;;;;;;2.23;1.77;;;26.60;30.00;;;;;;20539;6852;308482;-86
2022/07/08 09:37:25;;;;;;;2.10;1.47;;;26.90;30.30;;;;;;20761;6849;117380;-85
2022/07/08 09:39:50;;;;;;;4.17;1.70;;;26.90;30.30;;;;;;20782;6846;120347;-86
2022/07/08 09:42:19;;;;;;;2.30;1.90;;;26.80;30.30;;;;;;20525;6846;307900;-86
2022/07/08 09:44:56;;;;;;;2.20;1.42;;;26.90;29.20;;;;;;20556;6846;307804;-87
2022/07/08 09:47:22;;;;;;;2.10;1.60;;;27.20;29.20;;;;;;20747;6846;117168;-88
2022/07/08 09:49:47;;;;;;;3.58;1.40;;;27.20;29.40;;;;;;20726;6846;119426;-87
2022/07/08 09:52:19;;;;;;;3.07;1.77;;;27.20;29.80;;;;;;20507;6846;307149;-87
2022/07/08 09:54:45;;;;;;;1.23;1.13;;;27.40;28.50;;;;;;20737;6846;117119;-89
2022/07/08 09:57:11;;;;;;;2.73;1.60;;;27.40;29.10;;;;;;20745;6846;117185;-88
2022/07/08 09:59:38;;;;;;;2.10;1.67;;;27.30;29.60;;;;;;20541;6846;278291;-90
2022/07/08 10:02:03;;;;;;;2.10;1.60;;;27.50;29.40;;;;;;20516;6846;276716;-90
2022/07/08 10:04:28;;;;;;;2.27;1.70;;;27.80;28.80;;;;;;20523;6844;307189;-89
2022/07/08 10:06:55;;;;;;;2.70;1.60;;;28.00;27.90;;;;;;20756;6845;117178;-89
2022/07/08 10:09:21;;;;;;;3.95;2.00;;;27.80;28.10;;;;;;20536;6846;338482;-85
2022/07/08 10:11:46;;;;;;;2.50;1.50;;;27.70;27.70;;;;;;20532;6846;280196;-89
2022/07/08 10:14:12;;;;;;;4.57;1.35;;;27.70;28.60;;;;;;20725;6846;117382;-87
2022/07/08 10:19:30;;;;;;;3.20;1.80;;;27.50;28.80;;;;;;19035;7219;291835;-89
2022/07/08 10:21:56;;;;;;;2.43;1.40;;;27.80;27.50;;;;;;19349;7228;295084;-89
2022/07/08 10:24:34;;;;;;;2.67;1.50;;;27.90;28.40;;;;;;19592;7219;120457;-90
2022/07/08 10:27:10;;;;;;;2.47;1.73;;;27.80;28.30;;;;;;20001;6859;116016;-90
2022/07/08 10:29:39;;;;;;;1.90;1.50;;;27.60;28.50;;;;;;20652;6843;117632;-89
2022/07/08 10:32:04;;;;;;;2.13;1.33;;;27.40;28.70;;;;;;20452;6843;121075;-90
2022/07/08 10:34:33;;;;;;;2.57;1.67;;;27.30;29.20;;;;;;20609;6843;120231;-90
2022/07/08 10:42:25;;;;;;;;;;;;;;;;;;;;;
2022/07/08 10:45:36;;;;;;;;;;;;;;;;;;;;;
2022/07/08 10:47:49;;;;;;;2.67;1.60;;;27.00;28.70;;;;;;20441;6797;311326;-90
2022/07/08 10:50:12;;;;;;;3.30;1.83;;;27.40;27.60;;;;;;20654;6723;304237;-88
2022/07/08 10:52:52;;;;;;;4.13;1.93;;;27.40;27.60;;;;;;20787;6712;117810;-91
2022/07/08 10:55:28;;;;;;;2.97;1.70;;;27.20;28.00;;;;;;21018;6753;117110;-90
2022/07/08 10:58:03;;;;;;;1.97;1.50;;;26.90;28.40;;;;;;20740;6723;306013;-89
2022/07/08 11:00:40;;;;;;;2.43;1.40;;;26.90;29.20;;;;;;21014;6708;115904;-90
2022/07/08 11:03:15;;;;;;;2.73;1.10;;;26.90;29.20;;;;;;20992;6712;117003;-89
2022/07/08 11:05:54;;;;;;;1.83;1.60;;;26.80;29.40;;;;;;20992;6712;116851;-90
2022/07/08 11:08:39;;;;;;;2.43;1.53;;;26.60;29.30;;;;;;20976;6712;116907;-87
2022/07/08 11:11:06;;;;;;;1.93;1.50;;;26.70;30.00;;;;;;20739;6712;277971;-87
2022/07/08 11:13:41;;;;;;;1.67;1.50;;;26.70;30.00;;;;;;21012;6712;117388;-90
2022/07/08 11:16:20;;;;;;;4.87;1.90;;;26.90;29.70;;;;;;20997;6712;119678;-89
2022/07/08 11:18:52;;;;;;;3.20;1.50;;;26.90;29.40;;;;;;20995;6711;117323;-89
2022/07/08 11:21:30;;;;;;;3.60;1.57;;;26.70;29.20;;;;;;20868;6711;117203;-88
2022/07/08 11:24:05;;;;;;;3.80;1.53;;;26.50;29.30;;;;;;20751;6712;305643;-89
2022/07/08 11:26:43;;;;;;;3.92;1.60;;;26.70;29.30;;;;;;20663;6708;304125;-90
2022/07/08 11:29:25;;;;;;;3.00;1.70;;;27.00;29.50;;;;;;20788;6708;305618;-87
2022/07/08 11:31:55;;;;;;;2.83;1.47;;;27.30;28.60;;;;;;20874;6712;116979;-88
2022/07/08 11:34:30;;;;;;;2.20;1.60;;;27.10;28.70;;;;;;20737;6708;277901;-85
2022/07/08 11:37:06;;;;;;;3.53;1.60;;;27.20;29.20;;;;;;21003;6708;117268;-85
2022/07/08 11:39:41;;;;;;;3.03;1.63;;;27.10;29.10;;;;;;20783;6708;305118;-86
2022/07/08 11:42:20;;;;;;;2.22;1.45;;;27.20;29.20;;;;;;20854;6708;309223;-89
2022/07/08 11:44:56;;;;;;;2.57;1.47;;;27.30;28.60;;;;;;20995;6712;116910;-85
2022/07/08 11:47:31;;;;;;;1.90;1.20;;;27.20;28.60;;;;;;20726;6723;295066;-86
2022/07/08 11:50:09;;;;;;;1.93;1.40;;;27.10;29.30;;;;;;20923;6723;118861;-86
2022/07/08 11:52:45;;;;;;;4.43;1.50;;;26.90;28.50;;;;;;20585;6723;306676;-85
2022/07/08 11:55:20;;;;;;;4.67;1.90;;;26.90;28.50;;;;;;20905;6745;117818;-86
2022/07/08 11:57:59;;;;;;;1.43;1.33;;;26.80;28.80;;;;;;20895;6727;117021;-87
2022/07/08 12:00:34;;;;;;;1.67;1.30;;;26.50;29.00;;;;;;20596;6800;117982;-84
2022/07/08 12:03:10;;;;;;;2.13;1.63;;;26.30;29.50;;;;;;20733;6727;310222;-86
2022/07/08 12:05:45;;;;;;;1.50;1.40;;;26.40;29.80;;;;;;20889;6745;117498;-86
2022/07/08 12:08:22;;;;;;;3.80;1.63;;;26.60;29.70;;;;;;20671;6738;305719;-87
2022/07/08 12:11:18;;;;;;;5.67;1.80;;;26.80;29.50;;;;;;20760;6708;277834;-86
2022/07/08 12:13:52;;;;;;;1.97;1.50;;;27.10;29.40;;;;;;21042;6712;116751;-86
2022/07/08 12:16:31;;;;;;;3.40;1.60;;;26.90;29.10;;;;;;20814;6712;275613;-86
2022/07/08 12:19:07;;;;;;;3.25;1.45;;;26.80;29.70;;;;;;20826;6712;303859;-84
2022/07/08 12:21:43;;;;;;;1.60;1.13;;;26.90;29.70;;;;;;20917;6753;66723;-86
2022/07/08 12:24:31;;;;;;;3.20;1.50;;;26.90;29.70;;;;;;20968;6727;117027;-86
2022/07/08 12:27:07;;;;;;;4.87;1.80;;;26.60;29.90;;;;;;21000;6715;116923;-86
2022/07/08 12:29:42;;;;;;;1.77;1.47;;;26.30;30.00;;;;;;20946;6726;117557;-86
2022/07/08 12:32:18;;;;;;;2.07;1.50;;;26.00;30.00;;;;;;20607;6718;307966;-86
2022/07/08 12:34:54;;;;;;;4.47;1.52;;;26.60;30.00;;;;;;20694;6740;281152;-85
2022/07/08 12:37:30;;;;;;;2.73;1.23;;;26.60;30.00;;;;;;20961;6723;116885;-86
2022/07/08 12:40:15;;;;;;;2.13;1.17;;;26.70;29.70;;;;;;21020;6708;116720;-86
2022/07/08 12:43:04;;;;;;;2.07;1.47;;;26.60;29.80;;;;;;20619;6708;278818;-86
2022/07/08 12:45:37;;;;;;;2.47;1.40;;;26.70;29.50;;;;;;20991;6727;118643;-86
2022/07/08 12:48:13;;;;;;;2.40;1.40;;;26.70;29.50;;;;;;20922;6727;116729;-85
2022/07/08 12:50:48;;;;;;;1.97;1.30;;;26.60;29.70;;;;;;20935;6722;116563;-85
2022/07/08 12:53:23;;;;;;;2.07;1.47;;;26.50;29.90;;;;;;20938;6727;118330;-85
2022/07/08 12:55:59;;;;;;;1.90;1.30;;;26.40;29.90;;;;;;20692;6735;306305;-84
2022/07/08 12:58:35;;;;;;;1.87;1.20;;;26.60;30.10;;;;;;20996;6722;117284;-85
2022/07/08 13:01:10;;;;;;;2.07;1.60;;;26.70;30.00;;;;;;20738;6722;306816;-86
2022/07/08 13:03:46;;;;;;;2.78;1.40;;;26.90;29.30;;;;;;20775;6722;275492;-86
2022/07/08 13:06:22;;;;;;;3.47;1.50;;;27.00;29.30;;;;;;20747;6722;334175;-86
2022/07/08 13:08:57;;;;;;;3.27;1.50;;;27.20;29.60;;;;;;20996;6722;117124;-86
2022/07/08 13:11:34;;;;;;;1.53;1.00;;;27.00;29.50;;;;;;20915;6722;116962;-85
2022/07/08 13:14:09;;;;;;;1.77;1.50;;;26.60;29.80;;;;;;20907;6727;116954;-85
2022/07/08 13:16:45;;;;;;;1.70;1.30;;;26.40;29.60;;;;;;20757;6712;275599;-85
2022/07/08 13:19:22;;;;;;;2.87;1.62;;;26.50;30.00;;;;;;20708;6727;305964;-85
2022/07/08 13:22:00;;;;;;;1.50;1.10;;;26.70;29.90;;;;;;20804;6727;117416;-86
2022/07/08 13:24:34;;;;;;;3.50;1.30;;;26.70;29.40;;;;;;20968;6727;116241;-85
2022/07/08 13:27:09;;;;;;;2.30;1.17;;;26.40;29.30;;;;;;20999;6730;120104;-85
2022/07/08 13:29:45;;;;;;;2.60;1.40;;;26.10;29.50;;;;;;20950;6730;116127;-85
2022/07/08 13:32:20;;;;;;;2.43;1.20;;;25.90;29.90;;;;;;20757;6727;119678;-85